< < Back
Terminal Aerodrome Forecast


Current Version              Previous Versions:   1  2  3  4  5  6  7  8  9  

Terminal Aerodrome Forecast

877
FTUS42 KFFC 132337
TAFFTY
TAF
KFTY 132337Z 1400/1424 34011KT P6SM SKC
     FM140200 35008KT P6SM FEW200
     FM140600 03004KT P6SM SCT150
     FM141200 10008KT P6SM BKN150
     FM142100 14008KT P6SM BKN150=



Latest METAR

260
SAUS70 KWBC 140800 RRB
MTRFTY
METAR KFTY 140753Z 00000KT 10SM CLR M02/M12 A3035 RMK AO2 SLP283
T10221122


USA.gov is the U.S. government's official web portal to all federal, state and local government web resources and services.